Time;durP1;ratioP1;P1;durP2;ratioP2;P2;SDS_P1;SDS_P2;PMS_P1;PMS_P2;Temp;Humidity;BMP_temperature;BMP_pressure;BME280_temperature;BME280_humidity;BME280_pressure;Samples;Min_cycle;Max_cycle;Signal;HPM_P1;HPM_P2
2021/07/12 00:02:16;;;;;;;11.93;9.23;;;19.90;99.90;;;;;;4995080;28;20454;-76
2021/07/12 00:04:42;;;;;;;10.98;9.88;;;19.90;99.90;;;;;;4994883;28;20073;-76
2021/07/12 00:07:09;;;;;;;9.77;8.82;;;19.80;99.90;;;;;;4995030;28;20053;-76
2021/07/12 00:09:36;;;;;;;13.38;9.60;;;19.80;99.90;;;;;;4995135;28;20050;-77
2021/07/12 00:12:03;;;;;;;9.60;8.70;;;19.70;99.90;;;;;;4996131;28;20462;-76
2021/07/12 00:14:29;;;;;;;15.48;10.50;;;19.50;99.90;;;;;;4995857;28;20046;-78
2021/07/12 00:16:56;;;;;;;10.50;9.50;;;19.40;99.90;;;;;;4995678;28;20458;-77
2021/07/12 00:19:24;;;;;;;11.13;10.13;;;19.40;99.90;;;;;;4994909;28;20050;-78
2021/07/12 00:21:50;;;;;;;13.27;11.88;;;19.30;99.90;;;;;;4994930;28;20054;-77
2021/07/12 00:24:19;;;;;;;10.38;8.93;;;19.50;99.90;;;;;;4995193;28;20047;-77
2021/07/12 00:26:46;;;;;;;11.18;10.10;;;19.40;99.90;;;;;;4995538;28;20054;-77
2021/07/12 00:29:13;;;;;;;10.75;9.75;;;19.30;99.90;;;;;;4994902;28;20105;-77
2021/07/12 00:31:40;;;;;;;10.35;9.45;;;19.10;99.90;;;;;;4994823;28;20058;-77
2021/07/12 00:34:07;;;;;;;11.95;10.85;;;19.10;99.90;;;;;;4995038;28;20328;-76
2021/07/12 00:36:35;;;;;;;11.45;10.38;;;19.10;99.90;;;;;;4994925;28;20081;-77
2021/07/12 00:39:01;;;;;;;13.07;11.77;;;19.10;99.90;;;;;;4994380;28;20502;-76
2021/07/12 00:41:28;;;;;;;12.98;11.68;;;19.10;99.90;;;;;;4994197;28;20046;-77
2021/07/12 00:43:54;;;;;;;12.65;11.35;;;19.10;99.90;;;;;;4994467;28;20042;-79
2021/07/12 00:46:21;;;;;;;12.70;11.45;;;19.10;99.90;;;;;;4995027;28;20047;-77
2021/07/12 00:48:48;;;;;;;12.10;10.82;;;19.20;99.90;;;;;;4993747;28;20486;-77
2021/07/12 00:51:15;;;;;;;11.80;10.73;;;19.10;99.90;;;;;;4994512;28;20096;-77
2021/07/12 00:53:43;;;;;;;11.32;10.32;;;19.10;99.90;;;;;;4995971;28;20077;-77
2021/07/12 00:56:10;;;;;;;10.98;9.65;;;19.10;99.90;;;;;;4996038;28;20109;-77
2021/07/12 00:58:36;;;;;;;11.30;10.30;;;19.10;99.90;;;;;;4994809;28;20087;-77
2021/07/12 01:01:06;;;;;;;10.45;9.55;;;19.10;99.90;;;;;;4994207;28;20116;-76
2021/07/12 01:03:33;;;;;;;11.02;10.02;;;19.10;99.90;;;;;;4978005;28;20047;-78
2021/07/12 01:06:00;;;;;;;10.20;9.20;;;19.10;99.90;;;;;;4976785;28;20105;-76
2021/07/12 01:08:29;;;;;;;10.80;9.85;;;19.10;99.90;;;;;;4992114;28;20551;-78
2021/07/12 01:11:04;;;;;;;11.32;10.23;;;19.00;99.90;;;;;;4996888;28;20053;-79
2021/07/12 01:13:36;;;;;;;11.65;10.40;;;19.00;99.90;;;;;;4997091;28;20458;-79
2021/07/12 01:16:14;;;;;;;11.15;10.10;;;18.90;99.90;;;;;;4996589;28;20051;-76
2021/07/12 01:18:48;;;;;;;9.98;9.07;;;19.00;99.90;;;;;;4996789;28;20050;-80
2021/07/12 01:21:52;;;;;;;11.13;10.10;;;19.00;99.90;;;;;;4996868;28;20403;-78
2021/07/12 01:24:48;;;;;;;10.82;9.82;;;19.10;99.90;;;;;;4997428;28;20042;-78
2021/07/12 01:27:44;;;;;;;11.15;10.15;;;19.20;99.90;;;;;;4996010;28;20046;-77
2021/07/12 01:30:15;;;;;;;10.73;9.63;;;19.20;99.90;;;;;;4993982;28;20124;-76
2021/07/12 01:33:09;;;;;;;10.52;9.63;;;19.20;99.90;;;;;;4994230;28;20058;-78
2021/07/12 01:35:55;;;;;;;10.98;9.88;;;19.30;99.90;;;;;;4970536;28;20455;-77
2021/07/12 01:38:33;;;;;;;13.15;11.18;;;19.10;99.90;;;;;;4974559;28;20419;-79
2021/07/12 01:41:05;;;;;;;11.80;10.68;;;19.00;99.90;;;;;;4989064;28;20042;-77
2021/07/12 01:43:38;;;;;;;11.43;10.32;;;18.90;99.90;;;;;;4993792;28;20120;-76
2021/07/12 01:46:09;;;;;;;11.18;10.02;;;18.80;99.90;;;;;;4992193;28;20470;-76
2021/07/12 01:48:57;;;;;;;13.15;11.88;;;18.80;99.90;;;;;;4993204;28;20108;-77
2021/07/12 01:51:31;;;;;;;28.92;19.00;;;18.70;99.90;;;;;;4993435;28;20058;-77
2021/07/12 01:54:07;;;;;;;13.18;11.68;;;18.70;99.90;;;;;;4993236;28;20409;-76
2021/07/12 01:56:41;;;;;;;63.13;37.20;;;18.60;99.90;;;;;;4993732;28;20100;-77
2021/07/12 02:02:10;;;;;;;26.80;17.58;;;18.60;99.90;;;;;;4974411;28;20128;-78
2021/07/12 02:04:41;;;;;;;87.43;49.55;;;18.50;99.90;;;;;;4971461;28;20043;-77
2021/07/12 02:07:11;;;;;;;36.03;24.73;;;18.60;99.90;;;;;;4972692;28;20055;-77
2021/07/12 02:09:38;;;;;;;11.32;10.30;;;18.60;99.90;;;;;;4972001;28;20043;-77
2021/07/12 02:12:06;;;;;;;13.73;10.55;;;18.60;99.90;;;;;;4972078;28;20050;-77
2021/07/12 02:14:34;;;;;;;56.55;35.70;;;18.50;99.90;;;;;;4971820;28;20051;-77
2021/07/12 02:17:04;;;;;;;15.15;13.55;;;18.40;99.90;;;;;;4971325;28;20058;-76
2021/07/12 02:19:32;;;;;;;37.08;25.27;;;18.30;99.90;;;;;;4971228;28;20050;-77
2021/07/12 02:22:01;;;;;;;13.02;11.80;;;18.30;99.90;;;;;;4970726;28;20470;-77
2021/07/12 02:24:30;;;;;;;12.35;11.25;;;18.10;99.90;;;;;;4972006;28;20602;-77
2021/07/12 02:26:58;;;;;;;13.82;12.52;;;18.00;99.90;;;;;;4971468;28;20046;-77
2021/07/12 02:29:25;;;;;;;28.23;19.45;;;17.90;99.90;;;;;;4970645;28;20043;-76
2021/07/12 02:31:54;;;;;;;31.92;24.30;;;17.90;99.90;;;;;;4982659;28;20047;-77
2021/07/12 02:34:22;;;;;;;16.35;14.60;;;18.00;99.90;;;;;;4993302;28;20047;-77
2021/07/12 02:36:49;;;;;;;12.52;11.32;;;18.00;99.90;;;;;;4993042;28;20046;-77
2021/07/12 02:39:19;;;;;;;13.27;11.75;;;17.90;99.90;;;;;;4992315;28;20097;-77
2021/07/12 02:41:48;;;;;;;36.25;24.05;;;17.90;99.90;;;;;;4993699;28;20050;-77
2021/07/12 02:44:16;;;;;;;70.68;46.38;;;17.80;99.90;;;;;;4992747;28;20054;-77
2021/07/12 02:46:43;;;;;;;36.75;25.42;;;17.70;99.90;;;;;;4992912;28;20050;-77
2021/07/12 02:49:11;;;;;;;25.77;18.80;;;17.70;99.90;;;;;;4992678;28;20065;-77
2021/07/12 02:51:45;;;;;;;37.30;26.40;;;17.70;99.90;;;;;;4972997;28;20495;-76
2021/07/12 02:54:14;;;;;;;25.08;19.20;;;17.70;99.90;;;;;;4973177;28;20507;-76
2021/07/12 02:56:43;;;;;;;20.48;16.20;;;17.70;99.90;;;;;;4973214;28;20510;-77
2021/07/12 02:59:09;;;;;;;17.13;15.25;;;17.70;99.90;;;;;;4985351;28;20050;-77
2021/07/12 03:01:36;;;;;;;25.75;18.85;;;17.80;99.90;;;;;;4994933;28;20046;-77
2021/07/12 03:04:03;;;;;;;17.52;15.65;;;17.80;99.90;;;;;;4995265;28;20113;-77
2021/07/12 03:06:32;;;;;;;17.00;15.30;;;17.90;99.90;;;;;;4999596;28;20058;-77
2021/07/12 03:09:03;;;;;;;14.07;12.68;;;17.90;99.90;;;;;;4997308;28;20046;-76
2021/07/12 03:11:35;;;;;;;14.52;13.02;;;17.80;99.90;;;;;;4994859;28;20560;-78
2021/07/12 03:14:12;;;;;;;25.90;19.67;;;17.80;99.90;;;;;;4996475;28;20096;-77
2021/07/12 03:16:40;;;;;;;24.13;19.17;;;17.90;99.90;;;;;;4996404;28;20435;-77
2021/07/12 03:19:11;;;;;;;18.05;15.95;;;18.00;99.90;;;;;;4995358;28;20042;-77
2021/07/12 03:21:41;;;;;;;20.73;17.45;;;18.00;99.90;;;;;;4996002;28;20050;-77
2021/07/12 03:24:09;;;;;;;21.25;17.02;;;18.10;99.90;;;;;;4995452;28;20109;-77
2021/07/12 03:26:41;;;;;;;19.77;16.83;;;18.10;99.90;;;;;;4995767;28;20402;-78
2021/07/12 03:29:11;;;;;;;16.20;14.55;;;18.10;99.90;;;;;;4995276;28;20050;-78
2021/07/12 03:31:40;;;;;;;19.40;15.07;;;18.10;99.90;;;;;;4995889;28;20046;-78
2021/07/12 03:34:08;;;;;;;17.67;14.90;;;18.30;99.90;;;;;;4996138;28;20047;-78
2021/07/12 03:36:37;;;;;;;49.28;32.80;;;18.30;99.90;;;;;;4995493;28;20066;-77
2021/07/12 03:39:05;;;;;;;13.80;12.48;;;18.30;99.90;;;;;;4995571;28;20050;-77
2021/07/12 03:41:32;;;;;;;20.38;16.35;;;18.30;99.90;;;;;;4995220;28;20487;-78
2021/07/12 03:43:59;;;;;;;13.82;12.45;;;18.40;99.90;;;;;;4995672;28;20046;-77
2021/07/12 03:46:27;;;;;;;13.80;12.45;;;18.40;99.90;;;;;;4996715;28;20050;-79
2021/07/12 03:48:54;;;;;;;12.55;11.25;;;18.40;99.90;;;;;;4996488;28;20124;-77
2021/07/12 03:51:23;;;;;;;15.75;13.73;;;18.40;99.90;;;;;;4997505;28;20050;-77
2021/07/12 03:53:49;;;;;;;14.38;12.90;;;18.40;99.90;;;;;;4996826;28;20466;-77
2021/07/12 03:56:16;;;;;;;12.43;11.25;;;18.40;99.90;;;;;;4997619;28;20082;-77
2021/07/12 03:58:43;;;;;;;13.20;11.90;;;18.30;99.90;;;;;;4996077;28;20042;-77
2021/07/12 04:01:10;;;;;;;16.80;15.05;;;18.30;99.90;;;;;;4996537;28;20047;-76
2021/07/12 04:03:38;;;;;;;12.82;11.63;;;18.40;99.90;;;;;;4995530;28;20141;-77
2021/07/12 04:06:07;;;;;;;13.00;11.80;;;18.40;99.90;;;;;;4995469;28;20097;-76
2021/07/12 04:08:33;;;;;;;13.73;12.48;;;18.40;99.90;;;;;;4994621;28;20069;-77
2021/07/12 04:11:00;;;;;;;12.82;10.52;;;18.60;99.90;;;;;;4995524;28;20046;-77
2021/07/12 04:13:27;;;;;;;13.00;11.70;;;18.60;99.90;;;;;;4995526;28;20120;-76
2021/07/12 04:15:53;;;;;;;14.45;13.05;;;18.60;99.90;;;;;;4995438;28;20050;-77
2021/07/12 04:18:20;;;;;;;13.60;12.40;;;18.60;99.90;;;;;;4995238;28;20046;-78
2021/07/12 04:20:49;;;;;;;13.02;11.73;;;18.60;99.90;;;;;;4994960;28;20561;-76
2021/07/12 04:23:16;;;;;;;12.50;11.30;;;18.80;99.90;;;;;;4995391;28;20050;-76
2021/07/12 04:25:43;;;;;;;13.77;12.38;;;18.80;99.90;;;;;;4995721;28;20532;-76
2021/07/12 04:28:09;;;;;;;12.98;11.68;;;18.80;99.90;;;;;;4995084;28;20404;-77
2021/07/12 04:30:36;;;;;;;12.75;11.65;;;18.80;99.90;;;;;;4995513;28;20450;-76
2021/07/12 04:33:03;;;;;;;14.00;12.63;;;18.80;99.90;;;;;;4995509;28;20042;-78
2021/07/12 04:35:29;;;;;;;13.88;12.48;;;18.80;99.90;;;;;;4995659;28;20047;-77
2021/07/12 04:37:58;;;;;;;12.55;11.35;;;18.80;99.90;;;;;;4995293;28;20054;-77
2021/07/12 04:40:25;;;;;;;12.63;11.57;;;18.80;99.90;;;;;;4994288;28;20195;-76
2021/07/12 04:42:51;;;;;;;13.50;12.40;;;18.90;99.90;;;;;;4995241;28;20440;-77
2021/07/12 04:45:18;;;;;;;12.73;11.45;;;18.90;99.90;;;;;;4995991;28;20169;-77
2021/07/12 04:47:45;;;;;;;12.65;11.45;;;18.90;99.90;;;;;;4994668;28;20051;-76
2021/07/12 04:50:13;;;;;;;12.23;11.13;;;18.90;99.90;;;;;;4993734;28;20502;-76
2021/07/12 04:52:40;;;;;;;13.07;11.73;;;18.90;99.90;;;;;;4994120;28;20046;-77
2021/07/12 04:55:09;;;;;;;13.27;11.93;;;18.90;99.90;;;;;;4995076;28;20050;-77
2021/07/12 04:57:36;;;;;;;13.10;11.90;;;18.80;99.90;;;;;;4994775;28;20553;-77
2021/07/12 05:00:06;;;;;;;14.35;12.18;;;18.80;99.90;;;;;;4994276;28;20422;-76
2021/07/12 05:02:33;;;;;;;13.07;11.98;;;18.80;99.90;;;;;;4994499;28;20105;-76
2021/07/12 05:05:00;;;;;;;14.02;12.70;;;18.80;99.90;;;;;;4994300;28;20105;-77
2021/07/12 05:07:26;;;;;;;14.25;12.98;;;18.90;99.90;;;;;;4995013;28;20046;-77
2021/07/12 05:09:53;;;;;;;13.10;11.90;;;18.90;99.90;;;;;;4994542;28;20134;-77
2021/07/12 05:12:21;;;;;;;14.05;12.57;;;19.00;99.90;;;;;;4995902;28;20046;-78
2021/07/12 05:14:49;;;;;;;14.63;13.13;;;19.00;99.90;;;;;;4996060;28;20074;-78
2021/07/12 05:17:15;;;;;;;13.68;12.38;;;18.90;99.90;;;;;;4994911;28;20473;-77
2021/07/12 05:19:42;;;;;;;14.88;13.48;;;18.90;99.90;;;;;;4994333;28;20047;-77
2021/07/12 05:22:09;;;;;;;13.63;12.23;;;19.00;99.90;;;;;;4994330;28;20046;-78
2021/07/12 05:24:35;;;;;;;14.02;12.75;;;19.00;99.90;;;;;;4993924;28;20438;-77
2021/07/12 05:27:02;;;;;;;13.00;11.90;;;19.00;99.90;;;;;;4995250;28;20050;-79
2021/07/12 05:29:30;;;;;;;13.48;12.27;;;19.00;99.90;;;;;;4993482;28;20050;-77
2021/07/12 05:31:57;;;;;;;13.38;12.18;;;19.00;99.90;;;;;;4994002;28;20046;-77
2021/07/12 05:34:23;;;;;;;13.85;12.55;;;19.00;99.90;;;;;;4993627;28;20487;-78
2021/07/12 05:36:50;;;;;;;14.27;12.85;;;19.20;99.90;;;;;;4994101;28;20050;-77
2021/07/12 05:39:17;;;;;;;12.85;11.65;;;19.20;99.90;;;;;;4992804;28;20557;-78
2021/07/12 05:41:44;;;;;;;16.35;12.85;;;19.20;99.90;;;;;;4993611;28;20105;-79
2021/07/12 05:44:11;;;;;;;14.68;13.38;;;19.20;99.90;;;;;;4994595;28;20039;-77
2021/07/12 05:46:40;;;;;;;14.95;13.48;;;19.20;99.90;;;;;;4993818;28;20053;-76
2021/07/12 05:49:06;;;;;;;14.52;13.10;;;19.20;99.90;;;;;;4993012;28;20103;-77
2021/07/12 05:51:33;;;;;;;14.07;12.68;;;19.20;99.90;;;;;;4993905;28;20046;-75
2021/07/12 05:53:59;;;;;;;15.43;13.80;;;19.30;99.90;;;;;;4993125;28;20050;-76
2021/07/12 05:56:26;;;;;;;15.48;13.73;;;19.40;99.90;;;;;;4995507;28;20456;-77
2021/07/12 05:58:53;;;;;;;27.40;23.33;;;19.30;99.90;;;;;;4998712;28;20097;-77
2021/07/12 06:01:19;;;;;;;16.90;15.27;;;19.40;99.90;;;;;;4996876;28;20046;-77
2021/07/12 06:03:47;;;;;;;14.80;13.50;;;19.50;99.90;;;;;;4995318;28;20491;-78
2021/07/12 06:06:15;;;;;;;15.05;13.55;;;19.50;99.90;;;;;;4999348;28;20081;-77
2021/07/12 06:08:41;;;;;;;14.23;12.93;;;19.70;99.90;;;;;;4997554;28;20050;-76
2021/07/12 06:11:09;;;;;;;17.23;15.50;;;19.80;99.90;;;;;;4978929;28;20109;-76
2021/07/12 06:13:37;;;;;;;15.32;13.82;;;20.00;99.90;;;;;;4993041;28;20046;-76
2021/07/12 06:16:04;;;;;;;16.60;15.00;;;20.00;99.90;;;;;;4992617;28;20054;-76
2021/07/12 06:18:30;;;;;;;17.42;15.73;;;20.00;99.90;;;;;;4992286;28;20128;-74
2021/07/12 06:20:59;;;;;;;19.70;17.77;;;20.10;99.90;;;;;;4985756;28;20046;-76
2021/07/12 06:23:25;;;;;;;19.75;16.98;;;20.10;99.90;;;;;;4992537;28;20043;-73
2021/07/12 06:25:52;;;;;;;17.13;15.35;;;20.10;99.90;;;;;;4972819;28;20499;-76
2021/07/12 06:28:18;;;;;;;16.20;14.57;;;20.20;99.90;;;;;;4980290;28;20092;-71
2021/07/12 06:30:45;;;;;;;22.30;19.90;;;20.40;99.90;;;;;;4991555;28;20101;-73
2021/07/12 06:33:12;;;;;;;22.95;19.75;;;20.50;99.90;;;;;;4991920;28;20060;-71
2021/07/12 06:35:39;;;;;;;21.45;18.60;;;20.80;99.90;;;;;;4993061;28;20050;-69
2021/07/12 06:38:07;;;;;;;17.60;15.90;;;20.90;99.90;;;;;;4994154;28;20046;-70
2021/07/12 06:40:34;;;;;;;16.92;15.32;;;20.90;99.90;;;;;;4990361;28;20050;-72
2021/07/12 06:43:01;;;;;;;16.63;14.93;;;20.90;99.90;;;;;;4992217;28;20050;-71
2021/07/12 06:45:27;;;;;;;19.63;14.93;;;20.60;99.90;;;;;;4994401;28;20096;-72
2021/07/12 06:47:54;;;;;;;18.88;16.90;;;20.40;99.90;;;;;;4993904;28;20486;-72
2021/07/12 06:50:22;;;;;;;19.10;17.10;;;20.50;99.90;;;;;;4993201;28;20073;-72
2021/07/12 06:52:49;;;;;;;23.15;18.73;;;20.70;99.90;;;;;;4993722;28;20426;-72
2021/07/12 06:55:17;;;;;;;21.73;17.80;;;21.10;99.90;;;;;;4992052;28;20510;-71
2021/07/12 06:57:43;;;;;;;18.92;16.95;;;21.50;99.90;;;;;;4991775;28;20046;-73
2021/07/12 07:00:11;;;;;;;19.30;16.95;;;21.70;99.90;;;;;;4991386;28;20046;-73
2021/07/12 07:02:38;;;;;;;23.05;18.73;;;21.80;99.90;;;;;;4993696;28;20038;-72
2021/07/12 07:05:06;;;;;;;16.27;14.65;;;21.90;99.90;;;;;;4994357;28;20046;-75
2021/07/12 07:07:33;;;;;;;18.05;16.50;;;21.90;99.90;;;;;;4993636;28;20046;-72
2021/07/12 07:10:00;;;;;;;16.33;14.80;;;21.90;99.90;;;;;;4990804;28;20047;-73
2021/07/12 07:12:27;;;;;;;21.00;17.10;;;21.80;99.90;;;;;;4993604;28;20046;-78
2021/07/12 07:14:54;;;;;;;19.13;16.95;;;21.60;99.90;;;;;;4992360;28;20050;-72
2021/07/12 07:17:21;;;;;;;17.70;15.90;;;21.50;99.90;;;;;;4991928;28;20083;-71
2021/07/12 07:19:47;;;;;;;17.45;15.75;;;21.40;99.90;;;;;;4990943;28;20046;-69
2021/07/12 07:22:14;;;;;;;17.83;15.93;;;21.40;99.90;;;;;;4990586;28;20561;-71
2021/07/12 07:24:41;;;;;;;23.45;18.92;;;21.40;99.90;;;;;;4991694;28;20054;-72
2021/07/12 07:27:08;;;;;;;18.17;15.02;;;21.50;99.90;;;;;;4993718;28;20165;-72
2021/07/12 07:29:36;;;;;;;18.83;16.98;;;21.60;99.90;;;;;;4992921;28;20054;-72
2021/07/12 07:32:03;;;;;;;17.33;15.52;;;21.60;99.90;;;;;;4984498;28;20475;-72
2021/07/12 07:34:29;;;;;;;16.55;14.90;;;22.20;99.90;;;;;;4991262;28;20109;-72
2021/07/12 07:36:57;;;;;;;17.00;15.15;;;23.10;99.90;;;;;;4991256;28;20453;-75
2021/07/12 07:39:23;;;;;;;21.92;18.58;;;23.60;99.90;;;;;;4991436;28;20051;-72
2021/07/12 07:41:52;;;;;;;15.75;14.25;;;24.00;99.90;;;;;;4991964;28;20127;-71
2021/07/12 07:44:19;;;;;;;21.90;18.58;;;23.80;99.90;;;;;;4991956;28;20050;-75
2021/07/12 07:46:47;;;;;;;17.08;15.38;;;24.50;99.90;;;;;;4991435;28;20046;-73
2021/07/12 07:49:13;;;;;;;15.77;13.80;;;25.50;99.90;;;;;;4990824;28;20412;-73
2021/07/12 07:51:41;;;;;;;15.07;13.80;;;26.10;99.90;;;;;;4994226;28;20054;-71
2021/07/12 07:54:08;;;;;;;21.02;13.15;;;26.40;99.90;;;;;;4994860;28;20136;-75
2021/07/12 07:56:35;;;;;;;13.68;12.23;;;26.90;99.90;;;;;;4994521;28;20046;-72
2021/07/12 07:59:02;;;;;;;15.77;14.45;;;26.90;99.90;;;;;;4994130;28;20415;-72
2021/07/12 08:01:28;;;;;;;12.70;11.60;;;27.30;99.90;;;;;;4994841;28;20043;-76
2021/07/12 08:03:57;;;;;;;13.65;12.45;;;27.50;99.90;;;;;;4994710;28;20053;-74
2021/07/12 08:06:24;;;;;;;13.52;12.43;;;28.00;99.90;;;;;;4994730;28;20195;-73
2021/07/12 08:08:51;;;;;;;13.40;12.15;;;28.20;99.90;;;;;;4994369;28;20142;-74
2021/07/12 08:11:17;;;;;;;12.32;11.25;;;28.40;99.90;;;;;;4994926;28;20100;-70
2021/07/12 08:13:44;;;;;;;11.95;10.95;;;29.00;99.90;;;;;;4994600;28;20050;-70
2021/07/12 08:16:11;;;;;;;12.63;11.38;;;29.10;99.90;;;;;;4994807;28;20050;-71
2021/07/12 08:18:38;;;;;;;11.63;10.82;;;29.50;99.90;;;;;;4993635;28;20104;-74
2021/07/12 08:21:08;;;;;;;11.38;10.48;;;29.00;97.40;;;;;;4994172;28;20042;-73
2021/07/12 08:23:35;;;;;;;9.95;9.18;;;29.40;98.70;;;;;;4994259;28;20082;-73
2021/07/12 08:26:01;;;;;;;10.80;9.90;;;29.40;96.00;;;;;;4994522;28;20047;-72
2021/07/12 08:28:29;;;;;;;10.98;10.10;;;29.10;95.50;;;;;;4994168;28;20126;-75
2021/07/12 08:30:56;;;;;;;11.55;10.65;;;29.50;94.80;;;;;;4995267;28;20822;-73
2021/07/12 08:33:23;;;;;;;9.60;8.70;;;29.00;95.80;;;;;;4994975;28;20109;-69
2021/07/12 08:35:50;;;;;;;9.25;8.55;;;28.20;96.20;;;;;;4993513;28;20159;-72
2021/07/12 08:38:18;;;;;;;9.88;9.15;;;28.00;97.50;;;;;;4993471;28;20454;-70
2021/07/12 08:40:44;;;;;;;10.32;9.45;;;28.20;98.10;;;;;;4993125;28;20556;-72
2021/07/12 08:43:11;;;;;;;11.02;10.00;;;28.50;98.70;;;;;;4996293;28;20093;-70
2021/07/12 08:45:38;;;;;;;10.85;9.95;;;28.40;97.40;;;;;;4993562;28;20053;-70
2021/07/12 08:48:06;;;;;;;11.18;10.35;;;28.70;97.50;;;;;;4993895;28;20042;-70
2021/07/12 08:50:33;;;;;;;11.10;10.30;;;29.20;95.40;;;;;;4993804;28;20046;-70
2021/07/12 08:52:59;;;;;;;10.05;8.95;;;29.50;94.60;;;;;;4993924;28;20104;-71
2021/07/12 08:55:28;;;;;;;9.88;8.98;;;29.70;94.80;;;;;;4994182;28;20096;-70
2021/07/12 08:58:01;;;;;;;10.32;9.35;;;29.60;94.10;;;;;;4993646;28;20050;-69
2021/07/12 09:00:41;;;;;;;11.32;10.25;;;29.60;94.40;;;;;;4992977;28;20561;-71
2021/07/12 09:03:26;;;;;;;9.13;8.18;;;30.00;93.90;;;;;;4991733;28;20137;-71
2021/07/12 09:06:09;;;;;;;9.55;8.70;;;29.60;93.00;;;;;;4993621;28;20054;-70
2021/07/12 09:08:47;;;;;;;10.55;9.70;;;29.60;94.10;;;;;;4992461;28;20054;-71
2021/07/12 09:11:18;;;;;;;9.13;8.32;;;29.30;94.40;;;;;;4997044;28;20061;-69
2021/07/12 09:13:52;;;;;;;8.75;8.00;;;29.00;94.20;;;;;;4992878;28;20442;-71
2021/07/12 09:16:40;;;;;;;9.10;8.40;;;28.30;94.40;;;;;;4991819;28;20050;-70
2021/07/12 09:19:12;;;;;;;9.27;8.48;;;28.80;95.90;;;;;;4992889;28;20096;-78
2021/07/12 09:21:42;;;;;;;9.70;8.90;;;29.30;95.70;;;;;;4993599;28;20197;-76
2021/07/12 09:24:20;;;;;;;14.25;10.05;;;29.80;94.50;;;;;;4993152;28;20096;-74
2021/07/12 09:26:50;;;;;;;9.10;8.20;;;31.20;91.60;;;;;;4992548;28;20074;-71
2021/07/12 09:29:19;;;;;;;9.38;8.57;;;32.40;89.10;;;;;;4992364;28;20104;-68
2021/07/12 09:31:46;;;;;;;8.50;7.80;;;33.10;83.20;;;;;;4992870;28;20089;-68
2021/07/12 09:34:13;;;;;;;7.00;6.40;;;33.70;78.60;;;;;;4992739;28;20077;-68
2021/07/12 09:36:40;;;;;;;8.70;7.90;;;32.40;76.70;;;;;;4993293;28;20046;-68
2021/07/12 09:39:24;;;;;;;8.00;7.30;;;31.90;81.40;;;;;;4991979;28;20548;-72
2021/07/12 09:41:54;;;;;;;7.55;6.95;;;32.10;80.40;;;;;;4992885;28;20046;-68
2021/07/12 09:44:22;;;;;;;8.60;6.90;;;31.90;77.10;;;;;;4993224;28;20097;-69
2021/07/12 09:46:49;;;;;;;7.05;6.55;;;31.40;78.80;;;;;;4993282;28;20051;-69
2021/07/12 09:49:17;;;;;;;8.05;7.35;;;30.30;82.50;;;;;;4992504;28;20457;-71
2021/07/12 09:51:44;;;;;;;7.32;6.72;;;30.20;85.30;;;;;;4992705;28;20112;-70
2021/07/12 09:54:22;;;;;;;9.50;8.68;;;29.70;86.00;;;;;;4991905;28;20495;-70
2021/07/12 09:56:52;;;;;;;7.85;7.20;;;29.60;88.70;;;;;;4992170;28;20049;-73
2021/07/12 09:59:19;;;;;;;9.45;8.57;;;29.50;89.30;;;;;;4992534;28;20093;-74
2021/07/12 10:01:51;;;;;;;8.35;7.75;;;29.30;90.00;;;;;;4993004;28;20089;-74
2021/07/12 10:04:17;;;;;;;8.20;7.60;;;29.10;91.30;;;;;;4992935;28;20089;-72
2021/07/12 10:06:46;;;;;;;9.27;8.48;;;29.00;91.80;;;;;;4992402;28;20054;-73
2021/07/12 10:09:13;;;;;;;8.57;7.82;;;29.90;91.80;;;;;;4992207;28;20101;-73
2021/07/12 10:11:42;;;;;;;9.50;8.70;;;30.60;90.00;;;;;;4992591;28;20047;-73
2021/07/12 10:14:11;;;;;;;9.90;8.93;;;31.10;87.00;;;;;;4992735;28;20054;-73
2021/07/12 10:16:38;;;;;;;8.32;7.47;;;31.80;87.20;;;;;;4993094;28;20471;-74
2021/07/12 10:19:05;;;;;;;9.45;8.57;;;32.80;83.20;;;;;;4991432;28;20557;-72
2021/07/12 10:21:38;;;;;;;8.73;7.93;;;33.40;78.40;;;;;;4991686;28;20042;-73
2021/07/12 10:24:05;;;;;;;7.65;7.05;;;32.30;76.40;;;;;;4992336;28;20046;-72
2021/07/12 10:26:56;;;;;;;8.32;7.63;;;31.10;81.30;;;;;;4993056;28;20042;-73
2021/07/12 10:29:27;;;;;;;6.93;6.40;;;29.60;87.30;;;;;;4988107;28;20519;-73
2021/07/12 10:31:56;;;;;;;8.32;7.63;;;28.90;90.70;;;;;;4992068;28;20073;-72
2021/07/12 10:34:32;;;;;;;9.27;8.55;;;28.40;92.50;;;;;;4991871;28;20454;-72
2021/07/12 10:37:02;;;;;;;8.23;7.55;;;28.20;93.90;;;;;;4992199;28;20478;-71
2021/07/12 10:40:04;;;;;;;8.50;7.80;;;28.30;94.20;;;;;;4991578;28;20100;-72
2021/07/12 10:43:01;;;;;;;10.05;9.15;;;28.00;95.30;;;;;;4993236;28;20050;-74
2021/07/12 10:45:38;;;;;;;10.43;9.40;;;27.50;97.00;;;;;;4992301;28;20129;-72
2021/07/12 10:48:08;;;;;;;8.75;7.90;;;27.20;98.20;;;;;;4983278;28;20042;-74
2021/07/12 10:50:56;;;;;;;9.00;8.20;;;27.00;98.60;;;;;;4991088;28;20042;-77
2021/07/12 10:53:36;;;;;;;9.38;8.57;;;26.90;99.20;;;;;;4985487;28;20743;-73
2021/07/12 10:56:07;;;;;;;9.87;9.07;;;27.00;99.70;;;;;;4992291;28;20046;-71
2021/07/12 10:58:41;;;;;;;;;;;27.10;99.60;;;;;;4991833;28;20581;-71
2021/07/12 11:01:11;;;;;;;8.82;8.13;;;27.10;99.10;;;;;;4991735;28;20381;-73
2021/07/12 11:03:39;;;;;;;9.48;8.57;;;27.60;99.40;;;;;;4991839;28;20086;-76
2021/07/12 11:06:08;;;;;;;9.00;8.23;;;28.80;97.10;;;;;;4991369;28;20047;-71
2021/07/12 11:08:46;;;;;;;8.57;7.88;;;29.40;94.30;;;;;;4991368;28;20054;-74
2021/07/12 11:11:33;;;;;;;8.10;7.50;;;29.60;93.20;;;;;;4991600;28;20454;-71
2021/07/12 11:14:05;;;;;;;7.95;7.25;;;29.80;91.70;;;;;;4991435;28;20050;-74
2021/07/12 11:16:40;;;;;;;7.80;7.20;;;30.80;90.50;;;;;;4992087;28;20336;-77
2021/07/12 11:19:21;;;;;;;8.85;8.15;;;31.00;87.60;;;;;;4991041;28;20498;-75
2021/07/12 11:21:48;;;;;;;8.82;8.13;;;30.90;86.70;;;;;;4991879;28;20050;-73
2021/07/12 11:24:19;;;;;;;9.02;8.30;;;29.90;89.10;;;;;;4991733;28;20513;-71
2021/07/12 11:26:48;;;;;;;9.57;8.88;;;29.20;90.80;;;;;;4994829;28;20060;-72
2021/07/12 11:29:31;;;;;;;10.02;9.23;;;29.20;91.80;;;;;;4995122;28;20128;-74
2021/07/12 11:32:08;;;;;;;10.30;9.40;;;29.60;91.20;;;;;;4995336;28;20522;-72
2021/07/12 11:34:37;;;;;;;10.43;9.45;;;30.20;90.10;;;;;;4995147;28;20042;-69
2021/07/12 11:37:06;;;;;;;8.55;7.72;;;30.50;88.80;;;;;;4995164;28;20458;-69
2021/07/12 11:39:35;;;;;;;10.50;9.50;;;30.30;86.90;;;;;;4994531;28;20038;-70
2021/07/12 11:42:15;;;;;;;10.18;9.38;;;30.70;88.00;;;;;;4995404;28;20046;-69
2021/07/12 11:44:47;;;;;;;10.77;9.68;;;31.20;83.20;;;;;;4994853;28;20046;-70
2021/07/12 11:47:17;;;;;;;8.38;7.68;;;31.50;84.80;;;;;;4994997;28;20073;-70
2021/07/12 11:49:50;;;;;;;8.35;7.75;;;31.70;83.20;;;;;;4994238;28;20033;-68
2021/07/12 11:52:17;;;;;;;8.15;7.55;;;30.60;80.70;;;;;;4995066;28;20050;-70
2021/07/12 11:54:44;;;;;;;11.25;10.15;;;30.30;82.10;;;;;;4992326;28;20062;-71
2021/07/12 11:57:14;;;;;;;14.57;12.50;;;30.40;83.40;;;;;;4994623;28;20517;-69
2021/07/12 11:59:42;;;;;;;8.60;7.80;;;30.80;83.20;;;;;;4993977;28;20042;-69
2021/07/12 12:02:11;;;;;;;9.23;8.32;;;30.90;80.70;;;;;;4995337;28;20096;-75
2021/07/12 12:04:55;;;;;;;12.02;10.77;;;31.90;79.60;;;;;;4995403;28;20414;-73
2021/07/12 12:07:27;;;;;;;9.25;8.45;;;32.40;75.30;;;;;;4995412;28;20046;-73
2021/07/12 12:09:56;;;;;;;10.52;9.57;;;32.00;75.90;;;;;;4994454;28;20443;-72
2021/07/12 12:12:25;;;;;;;8.93;8.15;;;32.10;76.40;;;;;;4994402;28;20046;-72
2021/07/12 12:14:57;;;;;;;17.35;14.65;;;32.00;73.80;;;;;;4994877;28;20058;-72
2021/07/12 12:17:25;;;;;;;7.57;6.88;;;32.40;73.20;;;;;;4994671;28;20050;-72
2021/07/12 12:20:19;;;;;;;10.30;9.40;;;32.30;71.60;;;;;;4993611;28;20043;-72
2021/07/12 12:23:12;;;;;;;19.25;17.15;;;33.20;71.20;;;;;;4993922;28;20181;-73
2021/07/12 12:25:44;;;;;;;10.35;9.02;;;33.70;68.60;;;;;;4972671;28;20108;-73
2021/07/12 12:28:25;;;;;;;7.65;7.05;;;33.20;70.60;;;;;;4994586;28;20507;-72
2021/07/12 12:30:52;;;;;;;;;;;33.50;67.60;;;;;;4995056;28;20108;-71
2021/07/12 12:33:25;;;;;;;8.15;7.53;;;33.80;65.90;;;;;;4993984;28;19949;-72
2021/07/12 12:35:58;;;;;;;9.98;9.18;;;33.90;66.90;;;;;;4994594;28;20053;-74
2021/07/12 12:38:25;;;;;;;7.88;7.20;;;34.20;66.50;;;;;;4992893;28;20108;-72
2021/07/12 12:41:00;;;;;;;14.05;12.65;;;34.10;64.00;;;;;;4993905;28;20132;-72
2021/07/12 12:43:27;;;;;;;14.77;12.45;;;33.60;65.20;;;;;;4994255;28;20046;-73
2021/07/12 12:45:55;;;;;;;10.38;9.38;;;33.50;67.40;;;;;;4993852;28;20062;-73
2021/07/12 12:48:42;;;;;;;9.13;8.32;;;33.50;65.30;;;;;;4993065;28;20042;-72
2021/07/12 12:51:22;;;;;;;11.30;10.20;;;33.50;65.50;;;;;;4980845;28;20566;-73